OITK  Khoy  Airport

Khoy, Iran

Add Bookmark
ICAO OITK
IATA KHY
Type Airport
Status Operational
Latitude
38° 25' 39" N
38.427502
Longitude
44° 58' 24" E
44.973598
Local (DST + 5) UTC (GMT + 4)
Apr 19, 2015 03:27 Apr 19, 2015 10:57
Sunrise-Sunset Local UTC
Begin Civil Twilight 06:19 01:49
Sunrise 06:47 02:17
Sunset 08:11 15:41
End Civil Twilight 08:38 16:08
VFR
VFR
MVFR
MVFR
IFR
VFR
LIFR
VFR
Unknown
Unavailable

Current Weather

METAR Observed VFR
OITK 191000Z 20006KT 9999 FEW035 SCT040 21/M01 Q1012 Sun, Apr 19, 2015 @ 10:00 UTC
(57 Minutes ago)
Visual Flight Rules
Wind Visibility Clouds Conditions
200° at 6 knots (11 kph) 10 km or more
  • Few at 3,500 ft AGL
  • Scattered at 4,000 ft AGL
  • No significant weather
Temperatures Readings Precipitation
Current Temp
21°C
70°F
Dewpoint
-1°C
30°F
Humidity 23%
Altimeter 29.88" Hg
Sea Level Pressure 1,012 mb
Field Elevation
1,107 m
3,632 ft
None Recorded
-
-

CheckWX.com is intended as a tool to help pilots better visualize weather data. It is not intended as a substitute for an official weather briefing obtained from a Flight Service Station. CheckWX.com does not meet the FAA requirements for an official pre-flight weather briefing. Therefore, it's important that pilots still call and obtain an official FSS pre-flight weather briefing.

© 2007-2015 CheckWX.com
10:57:09 UTC